createdAt,value
2019-05-22T00:02:29.052Z,12.80
2019-05-22T00:05:29.299Z,12.93
2019-05-22T00:08:16.977Z,12.50
2019-05-22T00:11:04.487Z,13.60
2019-05-22T00:13:51.573Z,13.57
2019-05-22T00:16:41.206Z,12.70
2019-05-22T00:19:29.798Z,12.50
2019-05-22T00:22:23.893Z,11.77
2019-05-22T00:25:15.338Z,11.97
2019-05-22T00:28:02.419Z,14.03
2019-05-22T00:30:50.691Z,12.23
2019-05-22T00:33:38.603Z,12.77
2019-05-22T00:36:26.272Z,12.30
2019-05-22T00:39:16.235Z,12.17
2019-05-22T00:42:05.444Z,12.00
2019-05-22T00:44:53.805Z,12.20
2019-05-22T00:47:41.688Z,11.80
2019-05-22T00:50:39.812Z,12.87
2019-05-22T00:53:38.914Z,11.10
2019-05-22T00:56:50.409Z,10.53
2019-05-22T00:59:40.334Z,11.40
2019-05-22T01:02:27.732Z,10.20
2019-05-22T01:05:16.719Z,11.70
2019-05-22T01:08:05.656Z,10.70
2019-05-22T01:10:54.190Z,9.90
2019-05-22T01:13:42.502Z,10.37
2019-05-22T01:16:29.070Z,9.90
2019-05-22T01:19:18.094Z,9.93
2019-05-22T01:22:05.909Z,10.10
2019-05-22T01:24:56.453Z,9.90
2019-05-22T01:27:43.336Z,10.13
2019-05-22T01:30:52.667Z,10.60
2019-05-22T01:33:53.967Z,9.60
2019-05-22T01:36:46.876Z,10.37
2019-05-22T01:39:53.087Z,10.00
2019-05-22T01:42:41.178Z,10.20
2019-05-22T01:45:29.029Z,10.47
2019-05-22T01:48:18.582Z,10.47
2019-05-22T01:51:06.600Z,10.50
2019-05-22T01:53:53.566Z,10.40
2019-05-22T01:56:41.439Z,10.50
2019-05-22T01:59:30.024Z,10.13
2019-05-22T02:02:18.637Z,10.70
2019-05-22T02:05:08.692Z,10.80
2019-05-22T02:07:55.275Z,10.00
2019-05-22T02:10:43.939Z,10.50
2019-05-22T02:13:38.279Z,11.20
2019-05-22T02:16:25.802Z,10.20
2019-05-22T02:19:13.977Z,10.27
2019-05-22T02:22:03.933Z,9.67
2019-05-22T02:24:51.675Z,9.70
2019-05-22T02:27:39.469Z,9.50
2019-05-22T02:30:27.197Z,9.73
2019-05-22T02:33:17.830Z,8.97
2019-05-22T02:36:05.577Z,10.37
2019-05-22T02:38:54.099Z,9.87
2019-05-22T02:41:46.546Z,10.20
2019-05-22T02:44:34.624Z,10.23
2019-05-22T02:47:24.595Z,10.70
2019-05-22T02:50:11.819Z,10.50
2019-05-22T02:53:01.000Z,9.97
2019-05-22T02:55:48.107Z,9.43
2019-05-22T02:58:35.231Z,9.80
2019-05-22T03:01:26.037Z,9.80
2019-05-22T03:04:13.766Z,9.63
2019-05-22T03:07:00.448Z,9.37
2019-05-22T03:09:47.605Z,9.40
2019-05-22T03:12:36.012Z,9.33
2019-05-22T03:15:25.187Z,9.30
2019-05-22T03:18:13.930Z,9.87
2019-05-22T03:21:00.582Z,9.30
2019-05-22T03:23:47.966Z,9.30
2019-05-22T03:26:46.962Z,9.00
2019-05-22T03:29:51.144Z,8.90
2019-05-22T03:32:43.389Z,8.60
2019-05-22T03:35:29.890Z,8.90
2019-05-22T03:38:18.501Z,9.00
2019-05-22T03:41:05.294Z,8.77
2019-05-22T03:43:52.945Z,8.60
2019-05-22T03:46:45.424Z,8.70
2019-05-22T03:49:32.331Z,8.90
2019-05-22T03:52:19.393Z,9.10
2019-05-22T03:55:08.963Z,9.23
2019-05-22T03:57:56.329Z,9.10
2019-05-22T04:00:44.726Z,8.70
2019-05-22T04:03:32.454Z,9.00
2019-05-22T04:06:21.311Z,9.00
2019-05-22T04:09:19.607Z,9.37
2019-05-22T04:12:06.503Z,8.93
2019-05-22T04:14:52.910Z,9.50
2019-05-22T04:17:42.295Z,8.97
2019-05-22T04:20:29.827Z,8.93
2019-05-22T04:23:16.607Z,9.40
2019-05-22T04:26:04.540Z,9.17
2019-05-22T04:28:54.502Z,9.10
2019-05-22T04:31:56.057Z,9.20
2019-05-22T04:34:47.072Z,9.47
2019-05-22T04:37:33.714Z,9.60
2019-05-22T04:44:13.269Z,9.47
2019-05-22T04:54:55.181Z,9.07
2019-05-22T05:01:28.145Z,8.90
2019-05-22T05:04:32.363Z,8.93
2019-05-22T05:11:36.793Z,8.97
2019-05-22T05:26:14.792Z,9.10
2019-05-22T13:13:58.443Z,11.00
2019-05-22T14:59:06.745Z,10.87
2019-05-22T15:11:41.847Z,10.80
2019-05-22T15:15:00.039Z,10.30
2019-05-22T15:19:49.228Z,10.10
2019-05-22T15:22:55.295Z,10.70
2019-05-22T15:25:05.237Z,10.00
2019-05-22T15:35:03.941Z,10.70
2019-05-22T15:42:04.069Z,10.77
2019-05-22T15:45:01.167Z,10.93
2019-05-22T15:48:29.417Z,11.07
2019-05-22T15:51:26.162Z,10.47
2019-05-22T16:02:27.857Z,10.73
2019-05-22T16:08:12.971Z,11.20
2019-05-22T16:08:56.680Z,11.73
2019-05-22T16:12:42.138Z,11.87
2019-05-22T16:16:00.205Z,10.57
2019-05-22T16:25:50.534Z,11.67
2019-05-22T16:28:43.246Z,11.10
2019-05-22T16:31:44.278Z,11.30
2019-05-22T16:38:15.059Z,12.20
2019-05-22T16:44:36.052Z,11.73
2019-05-22T16:48:32.314Z,11.87
2019-05-22T16:51:37.744Z,11.53
2019-05-22T16:54:33.432Z,11.50
2019-05-22T16:57:31.003Z,11.43
2019-05-22T17:00:18.736Z,12.30
2019-05-22T17:03:18.216Z,13.50
2019-05-22T17:06:10.561Z,11.87
2019-05-22T17:08:59.846Z,12.70
2019-05-22T17:11:48.824Z,12.83
2019-05-22T17:14:36.620Z,13.30
2019-05-22T17:17:24.166Z,13.43
2019-05-22T17:20:15.654Z,13.77
2019-05-22T17:23:03.557Z,12.10
2019-05-22T17:25:51.654Z,11.87
2019-05-22T17:35:29.258Z,12.43
2019-05-22T17:39:42.324Z,12.17
2019-05-22T17:46:05.207Z,12.40
2019-05-22T17:49:03.732Z,13.50
2019-05-22T17:52:04.010Z,13.03
2019-05-22T17:55:22.078Z,11.83
2019-05-22T17:58:11.467Z,13.00
2019-05-22T18:00:59.964Z,11.60
2019-05-22T18:03:55.782Z,11.40
2019-05-22T18:06:45.135Z,13.63
2019-05-22T18:09:56.941Z,20.10
2019-05-22T18:12:55.365Z,16.97
2019-05-22T18:15:51.596Z,12.80
2019-05-22T18:18:39.806Z,12.57
2019-05-22T18:21:31.737Z,12.07
2019-05-22T18:24:21.956Z,12.47
2019-05-22T18:27:10.419Z,12.57
2019-05-22T18:30:08.474Z,11.90
2019-05-22T18:32:55.945Z,11.77
2019-05-22T18:36:34.018Z,11.50
2019-05-22T18:39:22.260Z,11.50
2019-05-22T18:42:16.530Z,11.10
2019-05-22T18:45:07.452Z,11.40
2019-05-22T18:48:09.868Z,11.33
2019-05-22T18:51:01.255Z,10.97
2019-05-22T18:53:53.765Z,11.57
2019-05-22T18:56:49.893Z,11.10
2019-05-22T18:59:48.977Z,10.40
2019-05-22T19:02:29.593Z,11.17
2019-05-22T19:05:21.412Z,10.57
2019-05-22T19:08:45.471Z,10.50
2019-05-22T19:20:11.577Z,10.40
2019-05-22T19:23:10.327Z,10.13
2019-05-22T19:26:05.534Z,10.63
2019-05-22T19:32:54.904Z,10.20
2019-05-22T19:35:45.060Z,10.50
2019-05-22T19:38:32.839Z,10.33
2019-05-22T19:41:20.102Z,11.10
2019-05-22T19:44:07.125Z,10.30
2019-05-22T19:46:57.434Z,10.37
2019-05-22T19:50:03.335Z,10.50
2019-05-22T20:01:27.261Z,9.60
2019-05-22T20:04:51.112Z,10.03
2019-05-22T20:08:12.100Z,9.93
2019-05-22T20:11:25.623Z,9.73
2019-05-22T20:18:28.823Z,10.10
2019-05-22T20:22:10.525Z,10.00
2019-05-22T20:24:55.088Z,10.00
2019-05-22T20:27:55.376Z,10.40
2019-05-22T20:30:43.752Z,10.00
2019-05-22T20:33:45.798Z,10.23
2019-05-22T20:36:42.587Z,9.70
2019-05-22T20:39:31.465Z,10.20
2019-05-22T20:42:30.241Z,10.30
2019-05-22T20:45:24.499Z,9.90
2019-05-22T20:48:28.489Z,9.40
2019-05-22T20:51:17.409Z,9.67
2019-05-22T20:54:14.754Z,10.23
2019-05-22T20:57:30.497Z,10.10
2019-05-22T21:00:44.861Z,10.17
2019-05-22T21:12:17.925Z,10.17
2019-05-22T21:20:54.178Z,9.40
2019-05-22T21:27:57.527Z,9.60
2019-05-22T21:38:11.179Z,9.60
2019-05-22T21:45:19.310Z,9.80
2019-05-22T21:48:41.061Z,9.30
2019-05-22T21:51:30.201Z,9.47
2019-05-22T21:57:58.188Z,9.53
2019-05-22T22:01:39.139Z,10.00
2019-05-22T22:08:50.412Z,9.50
2019-05-22T22:16:34.542Z,9.73
2019-05-22T22:22:43.212Z,9.40
2019-05-22T22:37:45.990Z,9.70
2019-05-22T22:40:43.917Z,10.00
2019-05-22T22:43:34.257Z,9.40
2019-05-22T22:46:35.563Z,9.50
2019-05-22T22:49:22.904Z,9.97
2019-05-22T22:52:13.471Z,9.30
2019-05-22T22:55:01.057Z,9.47
2019-05-22T22:57:49.024Z,9.47
2019-05-22T23:00:39.197Z,10.10
2019-05-22T23:03:29.438Z,9.57
2019-05-22T23:06:16.441Z,9.10
2019-05-22T23:09:04.711Z,9.30
2019-05-22T23:11:52.607Z,9.20
2019-05-22T23:14:44.811Z,9.40
2019-05-22T23:17:31.635Z,9.33
2019-05-22T23:20:17.449Z,9.17
2019-05-22T23:23:03.643Z,9.60
2019-05-22T23:25:50.580Z,9.70
2019-05-22T23:28:40.737Z,9.33
2019-05-22T23:31:28.699Z,9.50
2019-05-22T23:34:16.286Z,9.40
2019-05-22T23:37:03.305Z,9.40
2019-05-22T23:39:52.770Z,9.30
2019-05-22T23:42:42.740Z,9.27
2019-05-22T23:45:29.683Z,9.20
2019-05-22T23:48:16.602Z,9.40
2019-05-22T23:51:05.453Z,9.13
2019-05-22T23:53:53.460Z,9.90
2019-05-22T23:56:41.070Z,9.60
2019-05-22T23:59:27.804Z,9.60
